createdAt,value
2017-12-03T00:02:13.657Z,4.13
2017-12-03T00:04:41.346Z,5.23
2017-12-03T00:07:08.926Z,4.30
2017-12-03T00:09:37.380Z,4.80
2017-12-03T00:12:04.966Z,4.33
2017-12-03T00:14:32.598Z,4.93
2017-12-03T00:17:00.209Z,3.90
2017-12-03T00:19:27.765Z,3.43
2017-12-03T00:21:55.480Z,4.87
2017-12-03T00:24:23.076Z,4.00
2017-12-03T00:26:51.424Z,4.20
2017-12-03T00:29:19.031Z,3.83
2017-12-03T00:31:46.598Z,3.57
2017-12-03T00:34:14.300Z,3.70
2017-12-03T00:36:41.898Z,4.00
2017-12-03T00:39:10.266Z,3.27
2017-12-03T00:41:38.654Z,3.63
2017-12-03T00:44:06.979Z,4.03
2017-12-03T00:46:34.622Z,3.50
2017-12-03T00:49:02.175Z,3.50
2017-12-03T00:51:29.785Z,3.10
2017-12-03T00:53:57.533Z,2.80
2017-12-03T00:56:25.330Z,2.93
2017-12-03T00:58:52.948Z,2.87
2017-12-03T01:01:20.685Z,2.77
2017-12-03T01:03:48.461Z,2.70
2017-12-03T01:06:16.059Z,2.90
2017-12-03T01:08:43.619Z,2.93
2017-12-03T01:11:11.171Z,2.30
2017-12-03T01:13:38.763Z,3.00
2017-12-03T01:16:07.283Z,3.10
2017-12-03T01:18:34.856Z,2.53
2017-12-03T01:21:02.416Z,2.43
2017-12-03T01:23:29.996Z,2.80
2017-12-03T01:25:57.575Z,2.80
2017-12-03T01:28:25.155Z,2.13
2017-12-03T01:30:53.474Z,2.30
2017-12-03T01:33:21.424Z,2.60
2017-12-03T01:35:49.081Z,2.03
2017-12-03T01:38:16.650Z,2.00
2017-12-03T01:40:44.344Z,1.83
2017-12-03T01:43:11.901Z,2.43
2017-12-03T01:45:39.816Z,2.20
2017-12-03T01:48:07.399Z,1.90
2017-12-03T01:50:34.991Z,1.93
2017-12-03T01:53:02.555Z,2.20
2017-12-03T01:55:30.158Z,1.80
2017-12-03T01:57:57.749Z,1.73
2017-12-03T02:00:25.351Z,2.33
2017-12-03T02:02:52.921Z,1.70
2017-12-03T02:05:21.268Z,1.90
2017-12-03T02:07:48.841Z,2.03
2017-12-03T02:10:16.533Z,1.77
2017-12-03T02:12:44.865Z,1.63
2017-12-03T02:15:12.418Z,2.00
2017-12-03T02:17:40.010Z,2.10
2017-12-03T02:20:07.573Z,1.93
2017-12-03T02:22:35.933Z,1.70
2017-12-03T02:25:03.518Z,2.00
2017-12-03T02:27:31.059Z,1.47
2017-12-03T02:29:58.603Z,1.83
2017-12-03T02:32:26.165Z,1.77
2017-12-03T02:34:53.829Z,1.90
2017-12-03T02:37:21.407Z,1.17
2017-12-03T02:39:49.719Z,1.77
2017-12-03T02:42:17.303Z,1.20
2017-12-03T02:44:45.638Z,1.20
2017-12-03T02:47:13.977Z,1.47
2017-12-03T02:49:41.587Z,1.57
2017-12-03T02:52:09.141Z,1.13
2017-12-03T02:54:36.761Z,1.50
2017-12-03T02:57:04.329Z,2.00
2017-12-03T02:59:31.911Z,1.40
2017-12-03T03:02:00.309Z,1.30
2017-12-03T03:04:27.907Z,1.10
2017-12-03T03:06:55.427Z,1.47
2017-12-03T03:09:22.998Z,0.90
2017-12-03T03:11:50.609Z,1.37
2017-12-03T03:14:18.195Z,0.93
2017-12-03T03:16:46.561Z,1.10
2017-12-03T03:19:14.876Z,1.10
2017-12-03T03:21:42.481Z,1.10
2017-12-03T03:24:10.049Z,1.10
2017-12-03T03:26:37.635Z,1.20
2017-12-03T03:29:05.233Z,1.43
2017-12-03T03:31:32.791Z,1.00
2017-12-03T03:34:00.391Z,1.10
2017-12-03T03:36:27.943Z,1.40
2017-12-03T03:38:55.551Z,1.10
2017-12-03T03:41:23.130Z,0.83
2017-12-03T03:43:50.693Z,1.10
2017-12-03T03:46:18.309Z,1.00
2017-12-03T03:48:46.691Z,1.60
2017-12-03T03:51:15.194Z,1.10
2017-12-03T03:53:42.995Z,0.97
2017-12-03T03:56:10.553Z,1.13
2017-12-03T03:58:38.178Z,0.93
2017-12-03T04:01:05.727Z,1.10
2017-12-03T04:03:33.455Z,1.10
2017-12-03T04:06:01.025Z,1.00
2017-12-03T04:08:29.336Z,0.90
2017-12-03T04:10:56.965Z,1.17
2017-12-03T04:13:25.425Z,1.10
2017-12-03T04:15:52.990Z,0.90
2017-12-03T04:18:20.563Z,0.87
2017-12-03T04:20:48.885Z,0.80
2017-12-03T04:23:16.483Z,0.90
2017-12-03T04:25:44.011Z,1.40
2017-12-03T04:28:11.615Z,0.83
2017-12-03T04:30:39.177Z,1.13
2017-12-03T04:33:07.503Z,1.00
2017-12-03T04:35:35.093Z,1.10
2017-12-03T04:38:02.658Z,0.97
2017-12-03T04:40:30.273Z,1.00
2017-12-03T04:42:57.853Z,0.93
2017-12-03T04:45:25.442Z,1.37
2017-12-03T04:47:53.032Z,0.80
2017-12-03T04:50:21.371Z,0.80
2017-12-03T04:52:48.961Z,1.00
2017-12-03T04:55:16.507Z,0.93
2017-12-03T04:57:44.945Z,0.70
2017-12-03T05:00:12.524Z,1.00
2017-12-03T05:02:40.120Z,1.10
2017-12-03T05:05:08.446Z,1.00
2017-12-03T05:07:36.028Z,1.17
2017-12-03T05:10:04.401Z,0.80
2017-12-03T05:12:31.997Z,0.60
2017-12-03T05:15:00.354Z,0.93
2017-12-03T05:17:28.058Z,1.00
2017-12-03T05:19:55.753Z,0.90
2017-12-03T05:22:23.323Z,0.87
2017-12-03T05:24:50.977Z,0.90
2017-12-03T05:27:18.522Z,0.97
2017-12-03T05:29:46.246Z,1.07
2017-12-03T05:32:14.577Z,0.83
2017-12-03T05:34:42.140Z,1.00
2017-12-03T05:37:09.740Z,0.70
2017-12-03T05:39:38.072Z,0.90
2017-12-03T05:42:05.617Z,0.97
2017-12-03T05:44:33.200Z,0.77
2017-12-03T05:47:00.762Z,0.80
2017-12-03T05:49:28.356Z,1.00
2017-12-03T05:51:56.677Z,0.70
2017-12-03T05:54:24.255Z,0.67
2017-12-03T05:56:51.826Z,0.77
2017-12-03T05:59:19.373Z,0.60
2017-12-03T06:01:46.966Z,1.03
2017-12-03T06:04:15.313Z,0.80
2017-12-03T06:06:42.858Z,1.10
2017-12-03T06:09:10.438Z,0.90
2017-12-03T06:11:38.010Z,0.80
2017-12-03T06:14:05.612Z,0.80
2017-12-03T06:16:33.186Z,0.63
2017-12-03T06:19:00.807Z,0.93
2017-12-03T06:21:29.142Z,0.70
2017-12-03T06:23:56.706Z,0.87
2017-12-03T06:26:24.294Z,0.70
2017-12-03T06:28:51.836Z,0.60
2017-12-03T06:31:19.428Z,1.03
2017-12-03T06:33:47.856Z,0.90
2017-12-03T06:36:15.496Z,0.90
2017-12-03T06:38:43.052Z,0.93
2017-12-03T06:41:10.818Z,0.80
2017-12-03T06:43:38.393Z,0.83
2017-12-03T06:46:05.986Z,0.83
2017-12-03T06:48:33.566Z,0.77
2017-12-03T06:51:01.880Z,0.70
2017-12-03T06:53:29.582Z,0.60
2017-12-03T06:55:57.133Z,0.90
2017-12-03T06:58:24.721Z,0.90
2017-12-03T07:00:53.053Z,2.77
2017-12-03T07:03:20.648Z,0.80
2017-12-03T07:05:48.212Z,3.40
2017-12-03T07:08:16.555Z,1.80
2017-12-03T07:10:44.169Z,1.87
2017-12-03T07:13:12.495Z,2.03
2017-12-03T07:15:40.088Z,1.17
2017-12-03T07:18:07.607Z,1.80
2017-12-03T07:20:35.212Z,1.90
2017-12-03T07:23:03.553Z,2.10
2017-12-03T07:25:31.131Z,1.07
2017-12-03T07:27:58.710Z,2.90
2017-12-03T07:30:27.149Z,1.00
2017-12-03T07:32:54.684Z,1.50
2017-12-03T07:35:22.279Z,1.20
2017-12-03T07:37:49.905Z,2.37
2017-12-03T07:40:17.504Z,1.80
2017-12-03T07:42:45.099Z,1.37
2017-12-03T07:45:13.419Z,2.23
2017-12-03T07:47:41.067Z,1.97
2017-12-03T07:50:08.621Z,2.33
2017-12-03T07:52:36.376Z,2.37
2017-12-03T07:55:03.940Z,2.30
2017-12-03T07:57:31.887Z,2.90
2017-12-03T07:59:59.478Z,2.50
2017-12-03T08:02:27.067Z,3.60
2017-12-03T08:04:54.645Z,3.70
2017-12-03T08:07:22.210Z,3.87
2017-12-03T08:09:49.795Z,2.83
2017-12-03T08:12:17.488Z,2.90
2017-12-03T08:14:45.193Z,2.40
2017-12-03T08:17:13.723Z,2.43
2017-12-03T08:19:41.377Z,2.20
2017-12-03T08:22:08.969Z,2.23
2017-12-03T08:24:36.805Z,1.97
2017-12-03T08:27:04.358Z,1.90
2017-12-03T08:29:31.939Z,2.37
2017-12-03T08:31:59.488Z,1.63
2017-12-03T08:34:27.060Z,2.20
2017-12-03T08:36:54.621Z,2.20
2017-12-03T08:39:22.250Z,1.83
2017-12-03T08:41:49.807Z,2.60
2017-12-03T08:44:17.401Z,2.50
2017-12-03T08:46:45.005Z,2.50
2017-12-03T08:49:13.327Z,2.47
2017-12-03T08:51:41.071Z,2.10
2017-12-03T08:54:08.991Z,2.17
2017-12-03T08:56:37.389Z,1.77
2017-12-03T08:59:04.927Z,1.87
2017-12-03T09:01:32.631Z,1.97
2017-12-03T09:04:01.121Z,2.10
2017-12-03T09:06:29.319Z,2.33
2017-12-03T09:08:56.918Z,2.60
2017-12-03T09:11:24.484Z,3.10
2017-12-03T09:13:52.061Z,2.70
2017-12-03T09:16:20.361Z,2.17
2017-12-03T09:18:48.012Z,3.33
2017-12-03T09:21:15.577Z,2.80
2017-12-03T09:23:43.163Z,2.30
2017-12-03T09:26:10.731Z,2.73
2017-12-03T09:28:38.345Z,2.93
2017-12-03T09:31:06.649Z,3.20
2017-12-03T09:33:34.254Z,3.17
2017-12-03T09:36:02.783Z,3.00
2017-12-03T09:38:30.341Z,3.40
2017-12-03T09:40:57.941Z,3.07
2017-12-03T09:43:25.529Z,3.50
2017-12-03T09:45:54.126Z,2.80
2017-12-03T09:48:24.014Z,2.73
2017-12-03T09:50:54.825Z,3.10
2017-12-03T09:53:23.195Z,2.40
2017-12-03T09:55:50.941Z,3.07
2017-12-03T09:58:18.741Z,3.00
2017-12-03T10:00:46.451Z,3.30
2017-12-03T10:03:14.000Z,3.03
2017-12-03T10:05:42.319Z,2.53
2017-12-03T10:08:09.913Z,3.00
2017-12-03T10:10:37.661Z,2.07
2017-12-03T10:13:05.347Z,2.63
2017-12-03T10:15:32.940Z,2.57
2017-12-03T10:18:00.693Z,2.40
2017-12-03T10:20:28.277Z,2.60
2017-12-03T10:22:55.879Z,2.40
2017-12-03T10:25:24.959Z,2.70
2017-12-03T10:27:52.701Z,2.00
2017-12-03T10:30:20.270Z,2.30
2017-12-03T10:32:47.852Z,2.63
2017-12-03T10:35:15.440Z,1.67
2017-12-03T10:40:45.379Z,1.60
2017-12-03T10:43:13.731Z,1.90
2017-12-03T10:45:41.286Z,2.03
2017-12-03T10:48:08.848Z,2.00
2017-12-03T10:50:36.411Z,2.10
2017-12-03T10:53:04.153Z,2.13
2017-12-03T10:55:33.833Z,2.77
2017-12-03T10:58:01.417Z,2.30
2017-12-03T11:00:31.048Z,2.00
2017-12-03T11:02:58.789Z,2.30
2017-12-03T11:05:26.423Z,1.73
2017-12-03T11:07:54.006Z,2.80
2017-12-03T11:10:21.651Z,1.90
2017-12-03T11:12:49.192Z,2.33
2017-12-03T11:15:16.776Z,1.90
2017-12-03T11:17:44.361Z,1.77
2017-12-03T11:20:11.978Z,1.97
2017-12-03T11:22:39.651Z,1.93
2017-12-03T11:25:07.469Z,1.60
2017-12-03T11:27:35.046Z,2.57
2017-12-03T11:30:03.522Z,2.13
2017-12-03T11:32:31.880Z,1.90
2017-12-03T11:34:59.449Z,1.93
2017-12-03T11:37:27.065Z,1.60
2017-12-03T11:39:54.780Z,1.53
2017-12-03T11:42:22.414Z,1.77
2017-12-03T11:44:49.972Z,1.63
2017-12-03T11:47:17.568Z,1.70
2017-12-03T11:49:45.887Z,1.73
2017-12-03T11:52:13.471Z,2.07
2017-12-03T11:54:41.055Z,2.60
2017-12-03T11:57:08.599Z,1.57
2017-12-03T11:59:36.208Z,1.10
2017-12-03T12:02:03.765Z,2.00
2017-12-03T12:04:31.332Z,1.20
2017-12-03T12:06:58.928Z,1.70
2017-12-03T12:09:26.523Z,1.50
2017-12-03T12:11:54.868Z,1.60
2017-12-03T12:14:22.634Z,1.20
2017-12-03T12:16:50.414Z,1.30
2017-12-03T12:19:18.000Z,1.53
2017-12-03T12:21:45.590Z,1.20
2017-12-03T12:24:13.161Z,1.23
2017-12-03T12:26:40.862Z,1.53
2017-12-03T12:29:08.628Z,1.40
2017-12-03T12:31:36.249Z,1.47
2017-12-03T12:34:03.819Z,1.23
2017-12-03T12:36:31.390Z,1.30
2017-12-03T12:38:59.000Z,1.10
2017-12-03T12:41:26.594Z,1.30
2017-12-03T12:43:54.234Z,1.37
2017-12-03T12:46:21.846Z,1.40
2017-12-03T12:48:49.445Z,1.20
2017-12-03T12:51:17.048Z,1.30
2017-12-03T12:53:44.915Z,1.50
2017-12-03T12:56:12.490Z,1.40
2017-12-03T12:58:40.078Z,1.20
2017-12-03T13:01:08.436Z,1.70
2017-12-03T13:03:36.759Z,0.83
2017-12-03T13:06:04.358Z,1.30
2017-12-03T13:08:31.940Z,1.10
2017-12-03T13:11:00.475Z,1.10
2017-12-03T13:13:28.884Z,1.40
2017-12-03T13:15:56.972Z,1.37
2017-12-03T13:18:25.348Z,1.43
2017-12-03T13:20:53.702Z,1.50
2017-12-03T13:23:21.388Z,1.60
2017-12-03T13:25:48.976Z,1.33
2017-12-03T13:28:16.532Z,1.10
2017-12-03T13:30:44.125Z,1.33
2017-12-03T13:33:11.699Z,1.13
2017-12-03T13:35:39.274Z,0.87
2017-12-03T13:38:06.886Z,1.30
2017-12-03T13:40:34.605Z,1.20
2017-12-03T13:43:02.191Z,1.20
2017-12-03T13:45:29.769Z,1.23
2017-12-03T13:47:57.336Z,1.43
2017-12-03T13:50:24.919Z,1.73
2017-12-03T13:52:52.542Z,2.00
2017-12-03T13:55:20.110Z,1.40
2017-12-03T13:57:47.662Z,1.40
2017-12-03T14:00:15.245Z,0.93
2017-12-03T14:02:42.818Z,1.20
2017-12-03T14:05:10.382Z,1.20
2017-12-03T14:07:37.956Z,1.20
2017-12-03T14:10:05.667Z,1.30
2017-12-03T14:12:33.256Z,1.40
2017-12-03T14:15:00.823Z,1.20
2017-12-03T14:17:28.398Z,1.00
2017-12-03T14:19:55.980Z,1.30
2017-12-03T14:22:24.300Z,1.20
2017-12-03T14:24:52.101Z,0.90
2017-12-03T14:27:20.473Z,0.80
2017-12-03T14:29:48.066Z,1.43
2017-12-03T14:32:16.426Z,1.20
2017-12-03T14:34:44.011Z,0.80
2017-12-03T14:37:11.591Z,1.07
2017-12-03T14:39:39.190Z,1.00
2017-12-03T14:42:06.744Z,0.80
2017-12-03T14:44:34.572Z,1.07
2017-12-03T14:47:02.155Z,1.20
2017-12-03T14:49:29.729Z,1.60
2017-12-03T14:51:57.300Z,0.60
2017-12-03T14:54:24.976Z,0.80
2017-12-03T14:56:53.337Z,0.83
2017-12-03T14:59:20.885Z,1.20
2017-12-03T15:01:48.486Z,1.40
2017-12-03T15:04:16.812Z,1.03
2017-12-03T15:06:44.446Z,1.20
2017-12-03T15:09:12.004Z,1.13
2017-12-03T15:11:39.579Z,0.97
2017-12-03T15:14:07.452Z,0.87
2017-12-03T15:16:35.022Z,0.80
2017-12-03T15:19:02.593Z,1.30
2017-12-03T15:21:30.151Z,1.23
2017-12-03T15:23:57.709Z,1.30
2017-12-03T15:26:25.276Z,0.80
2017-12-03T15:28:52.907Z,0.87
2017-12-03T15:31:20.512Z,1.50
2017-12-03T15:33:48.851Z,0.93
2017-12-03T15:36:16.452Z,0.90
2017-12-03T15:38:44.043Z,1.57
2017-12-03T15:41:11.585Z,0.97
2017-12-03T15:43:39.147Z,0.97
2017-12-03T15:46:06.786Z,0.90
2017-12-03T15:48:34.358Z,1.00
2017-12-03T15:51:02.669Z,0.90
2017-12-03T15:53:30.264Z,5.37
2017-12-03T15:55:57.803Z,1.60
2017-12-03T15:58:25.407Z,2.07
2017-12-03T16:00:53.211Z,2.33
2017-12-03T16:03:20.766Z,1.60
2017-12-03T16:05:48.342Z,1.00
2017-12-03T16:08:16.079Z,1.47
2017-12-03T16:10:43.802Z,1.23
2017-12-03T16:13:11.462Z,1.40
2017-12-03T16:15:39.798Z,1.07
2017-12-03T16:18:07.372Z,1.53
2017-12-03T16:20:34.961Z,1.33
2017-12-03T16:23:02.518Z,1.00
2017-12-03T16:25:30.105Z,1.13
2017-12-03T16:27:58.477Z,1.37
2017-12-03T16:30:26.999Z,1.80
2017-12-03T16:32:54.641Z,1.60
2017-12-03T16:35:22.241Z,1.13
2017-12-03T16:37:49.823Z,1.37
2017-12-03T16:40:17.390Z,1.67
2017-12-03T16:42:44.968Z,1.40
2017-12-03T16:45:13.321Z,1.57
2017-12-03T16:47:40.921Z,1.03
2017-12-03T16:50:08.483Z,1.27
2017-12-03T16:52:36.058Z,1.33
2017-12-03T16:55:03.626Z,1.37
2017-12-03T16:57:31.250Z,1.00
2017-12-03T16:59:59.592Z,1.20
2017-12-03T17:02:27.195Z,2.17
2017-12-03T17:04:54.794Z,1.17
2017-12-03T17:07:22.370Z,1.40
2017-12-03T17:09:50.086Z,1.13
2017-12-03T17:12:17.751Z,1.27
2017-12-03T17:14:45.455Z,1.60
2017-12-03T17:17:13.017Z,1.37
2017-12-03T17:19:41.441Z,2.00
2017-12-03T17:22:09.122Z,1.30
2017-12-03T17:24:36.681Z,1.13
2017-12-03T17:27:04.301Z,1.40
2017-12-03T17:29:32.824Z,1.50
2017-12-03T17:32:00.394Z,1.30
2017-12-03T17:34:28.006Z,1.03
2017-12-03T17:36:56.437Z,1.90
2017-12-03T17:39:24.030Z,1.57
2017-12-03T17:41:51.594Z,1.03
2017-12-03T17:44:19.943Z,1.17
2017-12-03T17:46:47.521Z,1.00
2017-12-03T17:49:15.315Z,1.30
2017-12-03T17:51:43.762Z,1.17
2017-12-03T17:54:11.415Z,1.20
2017-12-03T17:56:38.966Z,1.60
2017-12-03T17:59:06.575Z,1.10
2017-12-03T18:01:35.054Z,1.33
2017-12-03T18:04:03.407Z,1.00
2017-12-03T18:06:31.743Z,1.23
2017-12-03T18:08:59.326Z,1.10
2017-12-03T18:11:26.918Z,0.70
2017-12-03T18:13:54.510Z,1.87
2017-12-03T18:16:22.109Z,1.50
2017-12-03T18:18:49.667Z,1.33
2017-12-03T18:21:17.612Z,1.13
2017-12-03T18:23:45.178Z,1.40
2017-12-03T18:26:12.760Z,1.37
2017-12-03T18:28:40.449Z,1.10
2017-12-03T18:31:09.635Z,1.40
2017-12-03T18:33:37.168Z,1.83
2017-12-03T18:36:04.752Z,1.30
2017-12-03T18:38:32.352Z,1.40
2017-12-03T18:40:59.996Z,1.60
2017-12-03T18:43:28.374Z,1.37
2017-12-03T18:45:56.676Z,1.60
2017-12-03T18:48:24.262Z,1.17
2017-12-03T18:50:51.834Z,1.00
2017-12-03T18:53:19.426Z,1.40
2017-12-03T18:55:47.812Z,1.17
2017-12-03T18:58:16.350Z,1.13
2017-12-03T19:00:44.014Z,1.13
2017-12-03T19:03:11.598Z,1.50
2017-12-03T19:05:39.168Z,0.93
2017-12-03T19:08:06.767Z,1.17
2017-12-03T19:10:34.330Z,0.77
2017-12-03T19:13:01.982Z,0.90
2017-12-03T19:15:29.550Z,1.00
2017-12-03T19:17:57.150Z,1.60
2017-12-03T19:20:24.792Z,1.77
2017-12-03T19:22:53.343Z,1.50
2017-12-03T19:25:20.936Z,1.23
2017-12-03T19:27:48.589Z,1.13
2017-12-03T19:30:16.198Z,1.07
2017-12-03T19:32:44.531Z,1.20
2017-12-03T19:35:12.126Z,1.37
2017-12-03T19:37:39.724Z,1.50
2017-12-03T19:40:07.404Z,1.37
2017-12-03T19:42:34.987Z,0.87
2017-12-03T19:45:02.736Z,1.20
2017-12-03T19:47:30.426Z,0.80
2017-12-03T19:49:58.264Z,0.90
2017-12-03T19:52:25.868Z,0.80
2017-12-03T19:54:53.464Z,1.33
2017-12-03T19:57:21.134Z,1.10
2017-12-03T19:59:48.765Z,0.90
2017-12-03T20:02:17.104Z,1.10
2017-12-03T20:04:44.713Z,1.10
2017-12-03T20:07:12.302Z,1.43
2017-12-03T20:09:39.908Z,0.80
2017-12-03T20:12:07.465Z,1.07
2017-12-03T20:14:35.978Z,1.03
2017-12-03T20:17:03.592Z,0.90
2017-12-03T20:19:31.333Z,1.30
2017-12-03T20:21:58.902Z,0.77
2017-12-03T20:24:26.496Z,0.80
2017-12-03T20:26:54.956Z,1.30
2017-12-03T20:29:22.621Z,0.87
2017-12-03T20:31:50.355Z,0.90
2017-12-03T20:34:17.961Z,1.10
2017-12-03T20:36:45.526Z,0.83
2017-12-03T20:39:14.016Z,0.97
2017-12-03T20:41:42.627Z,0.90
2017-12-03T20:44:10.991Z,1.27
2017-12-03T20:46:38.633Z,1.10
2017-12-03T20:49:07.072Z,1.93
2017-12-03T20:51:34.709Z,0.80
2017-12-03T20:54:02.343Z,0.87
2017-12-03T20:56:30.766Z,0.77
2017-12-03T20:58:58.368Z,0.80
2017-12-03T21:01:25.970Z,1.27
2017-12-03T21:03:53.580Z,0.80
2017-12-03T21:06:21.140Z,0.70
2017-12-03T21:08:48.712Z,0.90
2017-12-03T21:11:16.308Z,0.80
2017-12-03T21:13:44.008Z,1.20
2017-12-03T21:16:11.612Z,0.80
2017-12-03T21:18:39.947Z,0.97
2017-12-03T21:21:07.538Z,1.40
2017-12-03T21:23:35.954Z,1.00
2017-12-03T21:26:03.549Z,0.83
2017-12-03T21:28:31.172Z,0.67
2017-12-03T21:30:58.746Z,0.60
2017-12-03T21:33:26.359Z,0.60
2017-12-03T21:35:54.754Z,0.73
2017-12-03T21:38:22.349Z,0.83
2017-12-03T21:40:49.910Z,1.03
2017-12-03T21:43:17.498Z,1.00
2017-12-03T21:45:45.103Z,0.80
2017-12-03T21:48:12.670Z,0.80
2017-12-03T21:50:40.266Z,0.77
2017-12-03T21:53:07.832Z,0.60
2017-12-03T21:55:35.422Z,0.70
2017-12-03T21:58:03.766Z,0.80
2017-12-03T22:00:31.389Z,0.67
2017-12-03T22:02:58.970Z,1.20
2017-12-03T22:05:26.561Z,0.80
2017-12-03T22:07:54.125Z,1.00
2017-12-03T22:10:21.764Z,0.80
2017-12-03T22:12:49.333Z,0.93
2017-12-03T22:15:17.026Z,1.13
2017-12-03T22:17:44.612Z,0.73
2017-12-03T22:20:12.175Z,0.70
2017-12-03T22:22:39.788Z,1.17
2017-12-03T22:25:07.401Z,1.20
2017-12-03T22:27:34.964Z,0.90
2017-12-03T22:30:02.579Z,0.90
2017-12-03T22:32:30.956Z,1.13
2017-12-03T22:34:59.493Z,0.90
2017-12-03T22:37:27.077Z,0.60
2017-12-03T22:39:55.395Z,0.87
2017-12-03T22:42:23.133Z,0.50
2017-12-03T22:44:51.603Z,0.80
2017-12-03T22:47:19.205Z,0.67
2017-12-03T22:49:46.881Z,0.80
2017-12-03T22:52:14.454Z,0.80
2017-12-03T22:54:42.045Z,0.77
2017-12-03T22:57:09.607Z,0.90
2017-12-03T22:59:37.213Z,0.70
2017-12-03T23:02:04.778Z,0.60
2017-12-03T23:04:32.373Z,1.00
2017-12-03T23:06:59.960Z,0.70
2017-12-03T23:09:28.298Z,0.80
2017-12-03T23:11:55.870Z,0.60
2017-12-03T23:14:23.454Z,1.17
2017-12-03T23:16:51.042Z,0.90
2017-12-03T23:19:18.601Z,0.70
2017-12-03T23:21:46.209Z,1.00
2017-12-03T23:24:13.777Z,0.57
2017-12-03T23:26:41.341Z,0.90
2017-12-03T23:29:08.917Z,0.83
2017-12-03T23:31:37.285Z,0.60
2017-12-03T23:34:04.877Z,0.53
2017-12-03T23:36:32.425Z,0.90
2017-12-03T23:39:00.879Z,0.70
2017-12-03T23:41:29.261Z,0.77
2017-12-03T23:43:56.818Z,0.60
2017-12-03T23:46:24.413Z,0.70
2017-12-03T23:48:52.048Z,0.60
2017-12-03T23:51:20.432Z,0.90
2017-12-03T23:53:48.751Z,0.70
2017-12-03T23:56:17.271Z,0.60
2017-12-03T23:58:44.869Z,0.93
